METAR Data
IDs: Format: Raw Decoded Include TAF

Data at: 1235 UTC 16 Oct 2018

PAKW 161153Z AUTO VRB05KT 10SM CLR 08/03 A3016 RMK AO2 SLP213 T00830033 10100 20078 58006 TSNO
PAKW 160953Z AUTO 00000KT 10SM CLR 09/03 A3018 RMK AO2 SLP221 T00890028 TSNO
PAKW 160853Z AUTO 04005KT 10SM CLR 09/03 A3018 RMK AO2 SLP219 T00940033 401610083 58006 TSNO
PAKW 160753Z AUTO VRB06KT 10SM CLR 09/03 A3019 RMK AO2 SLP224 T00890033 TSNO
PAKW 160653Z AUTO 06007KT 030V100 10SM CLR 09/04 A3019 RMK AO2 SLP224 T00940039 TSNO
PAKW 160553Z AUTO VRB04G16KT 10SM CLR 09/04 A3020 RMK SLP226 T00940039 10139 20089 57005 TSNO VIA AUTODIAL
PAKW 160453Z AUTO 05007KT 10SM CLR 09/04 A3019 RMK AO2 SLP225 T00940044 TSNO
PAKW 160353Z AUTO 05008KT 10SM CLR 09/05 A3022 RMK AO2 SLP232 T00940050 TSNO
PAKW 160253Z AUTO VRB05KT 10SM CLR 09/06 A3021 RMK AO2 SLP232 T00890061 56010 TSNO
PAKW 160153Z AUTO 06004KT 10SM CLR 11/07 A3022 RMK AO2 SLP232 T01110067 TSNO
PAKW 160053Z AUTO 04006KT 10SM CLR 12/07 A3023 RMK AO2 SLP236 T01220072 TSNO
PAKW 152353Z AUTO 02004KT 10SM CLR 14/08 A3024 RMK AO2 SLP241 T01390078 10161 20117 58008 TSNO
PAKW 152253Z AUTO 04006KT 10SM CLR 16/08 A3026 RMK AO2 SLP246 T01560078 TSNO
PAKW 152153Z AUTO 00000KT 10SM CLR 15/07 A3026 RMK AO2 SLP247 T01500072 TSNO
PAKW 152053Z AUTO VRB05KT 10SM CLR 15/07 A3027 RMK AO2 SLP249 T01500072 58003 TSNO
PAKW 151953Z AUTO 00000KT 10SM CLR 14/08 A3027 RMK AO2 SLP250 T01390078 TSNO
PAKW 151853Z AUTO 08004KT 10SM CLR 13/08 A3028 RMK AO2 SLP251 T01280078 TSNO
PAKW 151753Z AUTO 05006KT 10SM CLR 12/08 A3027 RMK AO2 SLP251 T01170078 10117 20094 51005 TSNO
PAKW 151653Z AUTO 03005KT 10SM CLR 10/08 A3027 RMK AO2 SLP250 T01000078 TSNO
PAKW 151553Z AUTO 15006KT 10SM BKN031 11/08 A3026 RMK AO2 SLP248 T01060078 TSNO
PAKW 151453Z AUTO 14005KT 10SM BKN031 11/08 A3026 RMK AO2 SLP246 T01060078 53003 TSNO
PAKW 151353Z AUTO 13006KT 10SM OVC030 12/08 A3025 RMK AO2 SLP242 T01170083 TSNO $
PAKW 151335Z AUTO 14005KT 10SM OVC030 12/08 A3024 RMK AO2 T01170083 TSNO $
PAKW 151253Z AUTO VRB05KT 10SM OVC028 12/08 A3025 RMK AO2 SLP242 T01170083 TSNO $
PAKW 151153Z AUTO 02005KT 10SM OVC026 10/08 A3025 RMK AO2 SLP243 T01000083 10117 20089 56002 TSNO $
PAKW 151053Z AUTO 00000KT 10SM OVC026 11/08 A3026 RMK AO2 SLP245 T01110078 TSNO $
PAKW 151040Z AUTO VRB03KT 10SM OVC028 11/08 A3026 RMK AO2 T01060078 TSNO $
PAKW 150953Z AUTO 00000KT 10SM OVC035 12/08 A3025 RMK AO2 SLP243 T01170078 TSNO $
PAKW 150853Z AUTO VRB04KT 10SM FEW035 10/07 A3026 RMK AO2 SLP246 T01000072 401280089 50004 TSNO $
PAKW 150753Z AUTO 06003KT 10SM SCT032 09/08 A3026 RMK AO2 SLP247 T00940078 TSNO $
PAKW 150653Z AUTO 15003KT 10SM FEW029 10/08 A3025 RMK AO2 SLP244 T01000083 TSNO $
PAKW 150553Z AUTO 11005KT 10SM CLR 11/08 A3025 RMK AO2 SLP242 60000 T01060083 10128 20106 53007 TSNO $
PAKW 150453Z AUTO 17006KT 10SM BKN043 12/08 A3023 RMK AO2 RAE44 SLP237 P0000 T01220078 TSNO $
PAKW 150353Z AUTO 18009KT 10SM -RA OVC038 12/08 A3023 RMK AO2 SLP237 P0000 T01220083 TSNO $
PAKW 150253Z AUTO 14010KT 10SM -RA OVC040 12/09 A3023 RMK AO2 RAB0154E33B52 SLP236 P0000 60000 T01170094 58006 TSNO $
PAKW 150234Z AUTO 15007KT 10SM FEW029 OVC039 12/10 A3023 RMK AO2 RAB0154E33 P0000 T01170100 TSNO $
PAKW 150153Z AUTO 15010G15KT 9SM OVC027 12/10 A3024 RMK AO2 RAE50 SLP241 P0000 T01170100 TSNO $
PAKW 150100Z AUTO 15008KT 10SM -RA BKN029 OVC034 12/10 A3024 RMK AO2 P0000 T01220100 TSNO $
PAKW 150053Z AUTO 16009KT 10SM -RA SCT027 BKN034 OVC044 12/10 A3024 RMK AO2 SLP240 P0000 T01220100 TSNO $